createdAt,value
2023-03-23T15:58:01.016Z,6.60
2023-03-23T15:59:04.005Z,8.05
2023-03-23T16:00:11.561Z,6.25
2023-03-23T16:01:21.199Z,6.63
2023-03-23T16:02:26.278Z,5.85
2023-03-23T16:03:37.645Z,6.53
2023-03-23T16:04:41.646Z,6.38
2023-03-23T16:05:46.300Z,6.00
2023-03-23T16:06:52.009Z,6.13
2023-03-23T16:07:55.239Z,6.47
2023-03-23T16:08:58.532Z,6.53
2023-03-23T16:10:01.447Z,6.45
2023-03-23T16:11:05.891Z,5.20
2023-03-23T16:12:18.106Z,5.80
2023-03-23T16:13:21.786Z,7.97
2023-03-23T16:14:24.725Z,6.13
2023-03-23T16:15:27.624Z,6.72
2023-03-23T16:16:35.184Z,6.55
2023-03-23T16:17:38.071Z,6.10
2023-03-23T16:18:40.997Z,6.03
2023-03-23T16:19:43.761Z,6.40
2023-03-23T16:20:47.108Z,5.57
2023-03-23T16:21:50.886Z,5.60
2023-03-23T16:22:54.234Z,8.98
2023-03-23T16:23:57.640Z,6.45
2023-03-23T16:25:01.200Z,7.32
2023-03-23T16:26:04.652Z,8.13
2023-03-23T16:27:09.696Z,7.55
2023-03-23T16:28:14.307Z,8.25
2023-03-23T16:29:33.875Z,6.15
2023-03-23T16:30:42.094Z,7.57
2023-03-23T16:31:44.884Z,7.55
2023-03-23T16:32:48.150Z,7.00
2023-03-23T16:33:50.920Z,8.40
2023-03-23T16:34:53.740Z,7.57
2023-03-23T16:35:58.602Z,7.97
2023-03-23T16:37:02.434Z,9.25
2023-03-23T16:38:08.169Z,9.18
2023-03-23T16:39:16.093Z,8.80
2023-03-23T16:40:20.792Z,9.35
2023-03-23T16:41:23.626Z,7.55
2023-03-23T16:42:26.421Z,8.32
2023-03-23T16:43:29.237Z,8.88
2023-03-23T16:44:32.214Z,8.02
2023-03-23T16:45:35.182Z,7.30
2023-03-23T16:46:38.045Z,8.20
2023-03-23T16:47:41.885Z,7.78
2023-03-23T16:48:44.684Z,7.38
2023-03-23T16:49:47.499Z,8.73
2023-03-23T16:50:52.250Z,7.10
2023-03-23T16:51:55.077Z,8.98
2023-03-23T16:52:58.109Z,8.63
2023-03-23T16:54:01.382Z,8.23
2023-03-23T16:55:05.440Z,8.73
2023-03-23T16:56:08.294Z,8.38
2023-03-23T16:57:11.921Z,7.95
2023-03-23T16:58:17.738Z,9.40
2023-03-23T16:59:21.586Z,8.88
2023-03-23T17:00:26.937Z,8.45
2023-03-23T17:01:29.763Z,10.27
2023-03-23T17:02:33.291Z,9.05
2023-03-23T17:03:36.477Z,9.25
2023-03-23T17:04:44.677Z,12.25
2023-03-23T17:05:51.839Z,7.60
2023-03-23T17:06:54.785Z,8.27
2023-03-23T17:07:58.157Z,8.57
2023-03-23T17:09:00.964Z,8.75
2023-03-23T17:10:04.067Z,9.20
2023-03-23T17:11:07.425Z,10.23
2023-03-23T17:12:10.474Z,8.40
2023-03-23T17:13:13.610Z,10.23
2023-03-23T17:14:16.562Z,8.65
2023-03-23T17:15:19.583Z,9.38
2023-03-23T17:16:22.767Z,9.02
2023-03-23T17:17:25.893Z,9.20
2023-03-23T17:18:29.379Z,11.25
2023-03-23T17:19:32.687Z,9.32
2023-03-23T17:20:35.853Z,10.13
2023-03-23T17:21:38.717Z,9.77
2023-03-23T17:22:41.694Z,8.20
2023-03-23T17:23:45.211Z,9.25
2023-03-23T17:24:48.502Z,9.90
2023-03-23T17:25:51.876Z,8.23
2023-03-23T17:26:55.875Z,8.77
2023-03-23T17:28:05.614Z,9.20
2023-03-23T17:29:10.317Z,8.45
2023-03-23T17:30:13.371Z,11.05
2023-03-23T17:31:16.344Z,9.60
2023-03-23T17:32:21.008Z,9.13
2023-03-23T17:33:24.000Z,10.73
2023-03-23T17:34:28.773Z,9.05
2023-03-23T17:35:32.031Z,9.95
2023-03-23T17:36:36.947Z,10.32
2023-03-23T17:37:41.872Z,9.00
2023-03-23T17:38:45.486Z,9.27
2023-03-23T17:39:48.958Z,12.25
2023-03-23T17:40:59.432Z,10.38
2023-03-23T17:42:02.556Z,9.52
2023-03-23T17:43:05.561Z,9.88
2023-03-23T17:44:08.659Z,11.00
2023-03-23T17:45:11.869Z,10.20
2023-03-23T17:46:14.868Z,10.85
2023-03-23T17:47:17.885Z,9.35
2023-03-23T17:48:20.757Z,9.02
2023-03-23T17:49:24.355Z,10.25
2023-03-23T17:50:27.730Z,10.07
2023-03-23T17:51:30.750Z,9.52
2023-03-23T17:52:34.119Z,10.25
2023-03-23T17:53:37.438Z,9.80
2023-03-23T17:54:40.653Z,13.80
2023-03-23T17:55:43.878Z,11.38
2023-03-23T17:56:46.818Z,9.77
2023-03-23T17:57:52.074Z,9.40
2023-03-23T17:58:55.174Z,10.65
2023-03-23T17:59:58.040Z,9.88
2023-03-23T18:01:00.855Z,11.85
2023-03-23T18:02:03.858Z,11.82
2023-03-23T18:03:06.664Z,10.77
2023-03-23T18:04:09.604Z,10.30
2023-03-23T18:05:12.965Z,10.82
2023-03-23T18:06:16.009Z,10.05
2023-03-23T18:07:23.620Z,10.70
2023-03-23T18:08:27.099Z,9.23
2023-03-23T18:09:29.866Z,9.75
2023-03-23T18:10:35.775Z,9.80
2023-03-23T18:11:38.623Z,9.05
2023-03-23T18:12:42.101Z,9.98
2023-03-23T18:13:44.875Z,11.30
2023-03-23T18:14:48.033Z,10.55
2023-03-23T18:15:51.200Z,11.55
2023-03-23T18:16:55.564Z,8.63
2023-03-23T18:17:58.448Z,11.23
2023-03-23T18:19:01.507Z,11.95
2023-03-23T18:20:05.262Z,11.30
2023-03-23T18:21:10.395Z,10.05
2023-03-23T18:22:13.297Z,10.70
2023-03-23T18:23:16.282Z,9.23
2023-03-23T18:24:20.917Z,9.88
2023-03-23T18:25:24.292Z,10.85
2023-03-23T18:26:27.998Z,9.70
2023-03-23T18:27:31.305Z,9.45
2023-03-23T18:28:34.763Z,8.75
2023-03-23T18:29:37.634Z,10.88
2023-03-23T18:30:40.447Z,10.57
2023-03-23T18:31:44.455Z,9.40
2023-03-23T18:32:47.293Z,10.73
2023-03-23T18:33:54.155Z,8.75
2023-03-23T18:34:57.134Z,10.13
2023-03-23T18:36:01.504Z,9.35
2023-03-23T18:37:04.958Z,10.48
2023-03-23T18:38:07.987Z,10.05
2023-03-23T18:39:13.801Z,10.18
2023-03-23T18:40:17.876Z,10.02
2023-03-23T18:41:20.839Z,10.30
2023-03-23T18:42:23.949Z,11.25
2023-03-23T18:43:27.582Z,10.18
2023-03-23T18:44:31.288Z,11.00
2023-03-23T18:45:34.095Z,10.98
2023-03-23T18:46:37.611Z,10.68
2023-03-23T18:47:40.861Z,9.98
2023-03-23T18:48:44.187Z,12.05
2023-03-23T18:49:51.382Z,9.07
2023-03-23T18:51:58.215Z,9.32
2023-03-23T18:53:01.100Z,11.57
2023-03-23T18:54:04.274Z,8.43
2023-03-23T18:55:07.785Z,11.50
2023-03-23T18:56:13.482Z,9.73
2023-03-23T18:57:18.249Z,9.77
2023-03-23T18:58:21.396Z,11.10
2023-03-23T18:59:24.488Z,11.23
2023-03-23T19:00:27.611Z,9.80
2023-03-23T19:01:30.651Z,9.75
2023-03-23T19:02:33.638Z,12.65
2023-03-23T19:03:37.362Z,10.27
2023-03-23T19:04:40.966Z,11.05
2023-03-23T19:05:44.980Z,11.20
2023-03-23T19:06:48.269Z,10.10
2023-03-23T19:07:53.892Z,11.02
2023-03-23T19:08:57.129Z,11.85
2023-03-23T19:10:00.270Z,11.38
2023-03-23T19:11:04.827Z,11.30
2023-03-23T19:12:09.419Z,9.13
2023-03-23T19:13:12.322Z,9.70
2023-03-23T19:14:15.831Z,11.98
2023-03-23T19:15:18.917Z,12.07
2023-03-23T19:16:21.895Z,12.63
2023-03-23T19:17:26.175Z,11.93
2023-03-23T19:18:29.601Z,12.98
2023-03-23T19:19:32.799Z,11.65
2023-03-23T19:20:57.053Z,11.95
2023-03-23T19:22:00.083Z,10.32
2023-03-23T19:23:03.688Z,12.35
2023-03-23T19:24:10.972Z,10.98
2023-03-23T19:25:14.424Z,10.15
2023-03-23T19:26:24.042Z,10.98
2023-03-23T19:27:26.979Z,11.40
2023-03-23T19:29:35.625Z,10.50
2023-03-23T19:30:47.539Z,10.95
2023-03-23T19:31:50.500Z,10.32
2023-03-23T19:32:53.635Z,10.48
2023-03-23T19:33:56.860Z,10.48
2023-03-23T19:34:59.698Z,13.55
2023-03-23T19:36:10.341Z,11.57
2023-03-23T19:37:14.668Z,11.00
2023-03-23T19:38:17.982Z,11.32
2023-03-23T19:39:20.897Z,11.27
2023-03-23T19:40:39.532Z,9.93
2023-03-23T19:41:47.697Z,12.13
2023-03-23T19:42:51.628Z,10.82
2023-03-23T19:43:55.058Z,10.48
2023-03-23T19:44:57.933Z,10.68
2023-03-23T19:46:01.803Z,10.70
2023-03-23T19:47:08.409Z,12.35
2023-03-23T19:48:13.455Z,11.63
2023-03-23T19:49:18.542Z,11.40
2023-03-23T19:50:23.343Z,9.77
2023-03-23T19:51:28.825Z,12.18
2023-03-23T19:52:31.874Z,10.88
2023-03-23T19:53:35.291Z,12.70
2023-03-23T19:54:39.178Z,11.68
2023-03-23T19:55:43.825Z,10.27
2023-03-23T19:56:47.212Z,12.18
2023-03-23T19:57:50.862Z,12.15
2023-03-23T19:58:53.801Z,12.15
2023-03-23T19:59:57.741Z,11.98
2023-03-23T20:01:01.989Z,11.35
2023-03-23T20:02:05.490Z,11.70
2023-03-23T20:03:08.924Z,11.15
2023-03-23T20:04:12.285Z,12.57
2023-03-23T20:05:15.405Z,11.00
2023-03-23T20:06:18.530Z,12.02
2023-03-23T20:07:21.538Z,10.60
2023-03-23T20:08:25.287Z,11.35
2023-03-23T20:09:28.521Z,11.52
2023-03-23T20:10:34.726Z,9.45
2023-03-23T20:11:37.645Z,12.15
2023-03-23T20:12:40.495Z,10.88
2023-03-23T20:13:44.332Z,11.30
2023-03-23T20:14:47.354Z,10.13
2023-03-23T20:15:53.359Z,11.23
2023-03-23T20:16:56.836Z,11.55
2023-03-23T20:18:00.744Z,11.20
2023-03-23T20:19:05.067Z,11.45
2023-03-23T20:20:10.655Z,10.55
2023-03-23T20:21:19.610Z,12.02
2023-03-23T20:22:23.060Z,11.32
2023-03-23T20:23:25.980Z,11.10
2023-03-23T20:24:28.949Z,10.70
2023-03-23T20:25:32.164Z,13.10
2023-03-23T20:26:40.692Z,11.57
2023-03-23T20:27:44.900Z,13.18
2023-03-23T20:28:48.071Z,12.27
2023-03-23T20:29:52.497Z,10.75
2023-03-23T20:31:19.503Z,11.30
2023-03-23T20:32:24.969Z,10.20
2023-03-23T20:33:30.716Z,12.02
2023-03-23T20:34:34.298Z,10.45
2023-03-23T20:35:38.850Z,12.73
2023-03-23T20:36:45.452Z,12.15
2023-03-23T20:37:52.910Z,11.27
2023-03-23T20:38:57.653Z,11.70
2023-03-23T20:40:02.369Z,10.43
2023-03-23T20:41:09.267Z,11.07
2023-03-23T20:42:12.793Z,10.82
2023-03-23T20:43:15.729Z,11.45
2023-03-23T20:44:20.072Z,11.60
2023-03-23T20:45:22.920Z,10.82
2023-03-23T20:46:26.999Z,9.70
2023-03-23T20:47:29.993Z,11.73
2023-03-23T20:48:35.061Z,12.23
2023-03-23T20:49:38.655Z,12.23
2023-03-23T20:50:41.714Z,10.60
2023-03-23T20:51:45.214Z,10.35
2023-03-23T20:52:48.272Z,9.35
2023-03-23T20:53:51.099Z,9.38
2023-03-23T20:54:55.425Z,11.32
2023-03-23T20:56:01.945Z,11.10
2023-03-23T20:57:04.780Z,10.20
2023-03-23T20:58:08.256Z,10.07
2023-03-23T20:59:11.369Z,9.18
2023-03-23T21:00:16.542Z,10.32
2023-03-23T21:01:21.805Z,10.63
2023-03-23T21:02:30.214Z,9.85
2023-03-23T21:03:40.639Z,10.10
2023-03-23T21:04:45.450Z,9.45
2023-03-23T21:05:48.174Z,10.00
2023-03-23T21:06:52.091Z,10.38
2023-03-23T21:07:55.965Z,9.38
2023-03-23T21:08:59.135Z,9.05
2023-03-23T21:10:02.227Z,9.80
2023-03-23T21:11:08.172Z,9.48
2023-03-23T21:12:11.026Z,9.65
2023-03-23T21:13:15.713Z,8.95
2023-03-23T21:14:19.028Z,10.52
2023-03-23T21:15:21.815Z,9.45
2023-03-23T21:16:25.039Z,9.40
2023-03-23T21:17:28.023Z,9.85
2023-03-23T21:18:31.433Z,9.00
2023-03-23T21:19:34.568Z,10.38
2023-03-23T21:20:38.061Z,9.55
2023-03-23T21:21:56.096Z,9.10
2023-03-23T21:23:01.741Z,8.40
2023-03-23T21:24:04.906Z,8.65
2023-03-23T21:25:07.903Z,8.85
2023-03-23T21:26:12.246Z,7.47
2023-03-23T21:27:14.974Z,9.57
2023-03-23T21:28:19.641Z,8.38
2023-03-23T21:29:24.346Z,8.60
2023-03-23T21:30:28.133Z,8.90
2023-03-23T21:31:33.348Z,8.55
2023-03-23T21:32:36.593Z,8.32
2023-03-23T21:33:39.891Z,10.00
2023-03-23T21:34:43.555Z,9.20
2023-03-23T21:35:46.439Z,8.52
2023-03-23T21:36:49.295Z,9.55
2023-03-23T21:37:53.844Z,7.05
2023-03-23T21:38:57.447Z,8.15
2023-03-23T21:40:00.216Z,7.40
2023-03-23T21:41:09.472Z,7.53
2023-03-23T21:42:15.825Z,7.93
2023-03-23T21:43:18.962Z,7.75
2023-03-23T21:44:21.903Z,7.97
2023-03-23T21:45:25.836Z,9.30
2023-03-23T21:46:28.578Z,7.82
2023-03-23T21:47:31.996Z,7.45
2023-03-23T21:48:36.095Z,7.90
2023-03-23T21:49:40.805Z,8.00
2023-03-23T21:50:44.378Z,7.85
2023-03-23T21:51:49.008Z,7.63
2023-03-23T21:52:51.862Z,7.85
2023-03-23T21:53:55.968Z,6.93
2023-03-23T21:55:01.793Z,6.75
2023-03-23T21:56:06.957Z,8.38
2023-03-23T21:57:09.765Z,8.48
2023-03-23T21:58:12.696Z,7.57
2023-03-23T21:59:15.442Z,7.90
2023-03-23T22:00:19.095Z,7.32
2023-03-23T22:01:22.387Z,8.40
2023-03-23T22:02:25.470Z,7.80
2023-03-23T22:03:32.471Z,7.25
2023-03-23T22:04:35.319Z,7.95
2023-03-23T22:05:40.830Z,8.43
2023-03-23T22:06:43.683Z,6.88
2023-03-23T22:07:46.858Z,8.23
2023-03-23T22:08:49.882Z,6.95
2023-03-23T22:09:52.640Z,7.93
2023-03-23T22:11:03.466Z,7.65
2023-03-23T22:12:07.044Z,8.25
2023-03-23T22:13:09.898Z,8.15
2023-03-23T22:14:13.133Z,7.82
2023-03-23T22:15:16.148Z,8.13
2023-03-23T22:16:20.104Z,7.07
2023-03-23T22:17:23.012Z,8.13
2023-03-23T22:18:26.227Z,7.50
2023-03-23T22:19:29.016Z,8.20
2023-03-23T22:20:32.740Z,7.05
2023-03-23T22:21:36.840Z,7.93
2023-03-23T22:22:39.694Z,7.13
2023-03-23T22:23:43.927Z,6.07
2023-03-23T22:24:46.726Z,7.38
2023-03-23T22:25:49.518Z,8.98
2023-03-23T22:26:53.698Z,7.60
2023-03-23T22:27:56.432Z,7.68
2023-03-23T22:29:00.731Z,7.40
2023-03-23T22:30:04.509Z,7.18
2023-03-23T22:31:18.902Z,7.53
2023-03-23T22:32:21.860Z,7.72
2023-03-23T22:33:24.704Z,7.32
2023-03-23T22:34:27.486Z,7.07
2023-03-23T22:35:30.332Z,7.85
2023-03-23T22:36:34.241Z,9.05
2023-03-23T22:37:37.536Z,7.28
2023-03-23T22:38:43.019Z,8.75
2023-03-23T22:39:45.809Z,5.90
2023-03-23T22:40:56.423Z,7.45
2023-03-23T22:41:59.174Z,8.70
2023-03-23T22:43:03.465Z,7.55
2023-03-23T22:44:13.649Z,7.60
2023-03-23T22:45:16.835Z,7.70
2023-03-23T22:46:19.828Z,6.97
2023-03-23T22:47:23.092Z,7.05
2023-03-23T22:48:27.544Z,8.30
2023-03-23T22:49:30.502Z,8.73
2023-03-23T22:50:33.232Z,6.85
2023-03-23T22:51:37.207Z,7.60
2023-03-23T22:52:39.940Z,7.05
2023-03-23T22:53:43.127Z,8.07
2023-03-23T22:54:46.235Z,6.95
2023-03-23T22:55:51.953Z,8.07
2023-03-23T22:56:54.805Z,8.00
2023-03-23T22:57:57.775Z,7.70
2023-03-23T22:59:00.719Z,7.70
2023-03-23T23:00:08.212Z,7.03
2023-03-23T23:01:19.539Z,8.68
2023-03-23T23:02:22.991Z,8.63
2023-03-23T23:03:27.126Z,8.27
2023-03-23T23:04:30.722Z,9.25
2023-03-23T23:05:35.324Z,9.30
2023-03-23T23:06:38.217Z,6.47
2023-03-23T23:07:40.995Z,8.43
2023-03-23T23:08:44.382Z,8.65
2023-03-23T23:09:47.143Z,8.75
2023-03-23T23:10:52.282Z,8.70
2023-03-23T23:11:55.054Z,7.22
2023-03-23T23:12:58.010Z,8.50
2023-03-23T23:14:00.843Z,8.27
2023-03-23T23:15:06.145Z,6.97
2023-03-23T23:16:09.896Z,8.90
2023-03-23T23:17:12.767Z,8.65
2023-03-23T23:18:16.362Z,8.40
2023-03-23T23:19:19.169Z,8.25
2023-03-23T23:20:24.878Z,7.55
2023-03-23T23:21:29.145Z,7.60
2023-03-23T23:22:32.190Z,8.30
2023-03-23T23:23:35.361Z,7.97
2023-03-23T23:24:38.460Z,8.10
2023-03-23T23:25:42.022Z,8.38
2023-03-23T23:26:45.298Z,8.65
2023-03-23T23:27:48.171Z,7.70
2023-03-23T23:28:51.280Z,10.48
2023-03-23T23:29:54.213Z,7.57
2023-03-23T23:30:57.320Z,7.80
2023-03-23T23:32:02.359Z,7.03
2023-03-23T23:33:06.706Z,7.68
2023-03-23T23:34:13.136Z,8.20
2023-03-23T23:35:15.911Z,8.55
2023-03-23T23:36:19.378Z,7.70
2023-03-23T23:37:22.091Z,9.13
2023-03-23T23:38:24.901Z,9.80
2023-03-23T23:39:27.988Z,6.93
2023-03-23T23:40:33.188Z,8.98
2023-03-23T23:41:36.940Z,8.52
2023-03-23T23:42:39.670Z,9.55
2023-03-23T23:43:42.512Z,7.22
2023-03-23T23:44:46.662Z,8.50
2023-03-23T23:45:49.428Z,8.48
2023-03-23T23:46:52.242Z,10.55
2023-03-23T23:47:55.351Z,7.15
2023-03-23T23:48:59.490Z,8.68
2023-03-23T23:50:02.326Z,7.32
2023-03-23T23:51:06.618Z,7.38
2023-03-23T23:52:09.468Z,8.13
2023-03-23T23:53:13.239Z,8.50
2023-03-23T23:54:23.285Z,9.32
2023-03-23T23:55:27.351Z,7.50
2023-03-23T23:56:30.576Z,9.30
2023-03-23T23:57:34.033Z,9.25
2023-03-23T23:58:37.326Z,8.75
2023-03-23T23:59:40.397Z,7.38
